sensor_id;sensor_type;location;lat;lon;timestamp;temperature;humidity
15717;DHT22;7960;50.908;4.204;2022-08-23T00:02:10;20.20;99.90
15717;DHT22;7960;50.908;4.204;2022-08-23T00:04:40;20.00;99.90
15717;DHT22;7960;50.908;4.204;2022-08-23T00:07:15;20.10;99.90
15717;DHT22;7960;50.908;4.204;2022-08-23T00:09:42;20.20;99.90
15717;DHT22;7960;50.908;4.204;2022-08-23T00:12:15;20.40;99.90
15717;DHT22;7960;50.908;4.204;2022-08-23T00:14:45;20.70;99.90
15717;DHT22;7960;50.908;4.204;2022-08-23T00:17:13;20.90;99.90
15717;DHT22;7960;50.908;4.204;2022-08-23T00:19:41;20.90;99.90
15717;DHT22;7960;50.908;4.204;2022-08-23T00:22:09;21.00;99.90
15717;DHT22;7960;50.908;4.204;2022-08-23T00:24:37;21.10;99.90
15717;DHT22;7960;50.908;4.204;2022-08-23T00:27:06;21.10;99.90
15717;DHT22;7960;50.908;4.204;2022-08-23T00:29:37;21.20;99.90
15717;DHT22;7960;50.908;4.204;2022-08-23T00:32:05;21.50;99.90
15717;DHT22;7960;50.908;4.204;2022-08-23T00:34:34;21.30;99.90
15717;DHT22;7960;50.908;4.204;2022-08-23T00:37:02;21.30;99.90
15717;DHT22;7960;50.908;4.204;2022-08-23T00:39:29;21.30;99.90
15717;DHT22;7960;50.908;4.204;2022-08-23T00:41:59;21.30;99.90
15717;DHT22;7960;50.908;4.204;2022-08-23T00:44:50;21.50;99.90
15717;DHT22;7960;50.908;4.204;2022-08-23T00:47:43;21.40;99.90
15717;DHT22;7960;50.908;4.204;2022-08-23T00:50:17;20.60;99.90
15717;DHT22;7960;50.908;4.204;2022-08-23T00:52:52;20.20;99.90
15717;DHT22;7960;50.908;4.204;2022-08-23T00:55:23;20.30;99.90
15717;DHT22;7960;50.908;4.204;2022-08-23T00:57:50;20.10;99.90
15717;DHT22;7960;50.908;4.204;2022-08-23T01:00:19;20.20;99.90
15717;DHT22;7960;50.908;4.204;2022-08-23T01:02:47;20.50;99.90
15717;DHT22;7960;50.908;4.204;2022-08-23T01:05:16;20.70;99.90
15717;DHT22;7960;50.908;4.204;2022-08-23T01:07:47;20.90;99.90
15717;DHT22;7960;50.908;4.204;2022-08-23T01:10:19;20.90;99.90
15717;DHT22;7960;50.908;4.204;2022-08-23T01:12:51;20.90;99.90
15717;DHT22;7960;50.908;4.204;2022-08-23T01:15:24;21.00;99.90
15717;DHT22;7960;50.908;4.204;2022-08-23T01:17:55;21.10;99.90
15717;DHT22;7960;50.908;4.204;2022-08-23T01:20:26;21.20;99.90
15717;DHT22;7960;50.908;4.204;2022-08-23T01:22:57;21.20;99.90
15717;DHT22;7960;50.908;4.204;2022-08-23T01:25:29;21.10;99.90
15717;DHT22;7960;50.908;4.204;2022-08-23T01:27:56;20.60;99.90
15717;DHT22;7960;50.908;4.204;2022-08-23T01:30:26;20.50;99.90
15717;DHT22;7960;50.908;4.204;2022-08-23T01:32:56;20.40;99.90
15717;DHT22;7960;50.908;4.204;2022-08-23T01:35:34;20.70;99.90
15717;DHT22;7960;50.908;4.204;2022-08-23T01:38:02;20.80;99.90
15717;DHT22;7960;50.908;4.204;2022-08-23T01:40:31;20.80;99.90
15717;DHT22;7960;50.908;4.204;2022-08-23T01:42:58;20.70;99.90
15717;DHT22;7960;50.908;4.204;2022-08-23T01:45:27;20.80;99.90
15717;DHT22;7960;50.908;4.204;2022-08-23T01:47:54;20.80;99.90
15717;DHT22;7960;50.908;4.204;2022-08-23T01:50:22;21.10;99.90
15717;DHT22;7960;50.908;4.204;2022-08-23T01:52:49;21.20;99.90
15717;DHT22;7960;50.908;4.204;2022-08-23T01:55:17;21.20;99.90
15717;DHT22;7960;50.908;4.204;2022-08-23T01:57:48;21.10;99.90
15717;DHT22;7960;50.908;4.204;2022-08-23T02:00:15;21.10;99.90
15717;DHT22;7960;50.908;4.204;2022-08-23T02:02:42;21.10;99.90
15717;DHT22;7960;50.908;4.204;2022-08-23T02:05:11;21.10;99.90
15717;DHT22;7960;50.908;4.204;2022-08-23T02:07:38;21.00;99.90
15717;DHT22;7960;50.908;4.204;2022-08-23T02:10:06;21.00;99.90
15717;DHT22;7960;50.908;4.204;2022-08-23T02:12:34;20.90;99.90
15717;DHT22;7960;50.908;4.204;2022-08-23T02:15:04;20.90;99.90
15717;DHT22;7960;50.908;4.204;2022-08-23T02:17:31;20.80;99.90
15717;DHT22;7960;50.908;4.204;2022-08-23T02:19:59;20.80;99.90
15717;DHT22;7960;50.908;4.204;2022-08-23T02:22:26;20.70;99.90
15717;DHT22;7960;50.908;4.204;2022-08-23T02:24:53;20.50;99.90
15717;DHT22;7960;50.908;4.204;2022-08-23T02:27:20;20.50;99.90
15717;DHT22;7960;50.908;4.204;2022-08-23T02:29:47;20.50;99.90
15717;DHT22;7960;50.908;4.204;2022-08-23T02:32:17;20.50;99.90
15717;DHT22;7960;50.908;4.204;2022-08-23T02:34:45;20.30;99.90
15717;DHT22;7960;50.908;4.204;2022-08-23T02:37:13;20.30;99.90
15717;DHT22;7960;50.908;4.204;2022-08-23T02:39:41;20.20;99.90
15717;DHT22;7960;50.908;4.204;2022-08-23T02:42:09;20.00;99.90
15717;DHT22;7960;50.908;4.204;2022-08-23T02:44:36;19.60;99.90
15717;DHT22;7960;50.908;4.204;2022-08-23T02:47:04;19.60;99.90
15717;DHT22;7960;50.908;4.204;2022-08-23T02:49:35;19.90;99.90
15717;DHT22;7960;50.908;4.204;2022-08-23T02:52:04;20.10;99.90
15717;DHT22;7960;50.908;4.204;2022-08-23T02:54:31;20.20;99.90
15717;DHT22;7960;50.908;4.204;2022-08-23T02:56:58;20.20;99.90
15717;DHT22;7960;50.908;4.204;2022-08-23T02:59:25;20.20;99.90
15717;DHT22;7960;50.908;4.204;2022-08-23T03:01:52;20.30;99.90
15717;DHT22;7960;50.908;4.204;2022-08-23T03:04:19;20.30;99.90
15717;DHT22;7960;50.908;4.204;2022-08-23T03:06:48;20.30;99.90
15717;DHT22;7960;50.908;4.204;2022-08-23T03:09:15;20.30;99.90
15717;DHT22;7960;50.908;4.204;2022-08-23T03:11:43;20.40;99.90
15717;DHT22;7960;50.908;4.204;2022-08-23T03:14:11;20.40;99.90
15717;DHT22;7960;50.908;4.204;2022-08-23T03:16:38;20.30;99.90
15717;DHT22;7960;50.908;4.204;2022-08-23T03:19:05;20.20;99.90
15717;DHT22;7960;50.908;4.204;2022-08-23T03:21:32;20.10;99.90
15717;DHT22;7960;50.908;4.204;2022-08-23T03:24:01;20.10;99.90
15717;DHT22;7960;50.908;4.204;2022-08-23T03:26:28;20.00;99.90
15717;DHT22;7960;50.908;4.204;2022-08-23T03:28:55;20.00;99.90
15717;DHT22;7960;50.908;4.204;2022-08-23T03:31:22;20.00;99.90
15717;DHT22;7960;50.908;4.204;2022-08-23T03:33:50;19.90;99.90
15717;DHT22;7960;50.908;4.204;2022-08-23T03:36:18;20.00;99.90
15717;DHT22;7960;50.908;4.204;2022-08-23T03:38:45;20.00;99.90
15717;DHT22;7960;50.908;4.204;2022-08-23T03:41:14;20.00;99.90
15717;DHT22;7960;50.908;4.204;2022-08-23T03:43:42;20.00;99.90
15717;DHT22;7960;50.908;4.204;2022-08-23T03:46:09;19.90;99.90
15717;DHT22;7960;50.908;4.204;2022-08-23T03:48:47;20.00;99.90
15717;DHT22;7960;50.908;4.204;2022-08-23T03:51:15;20.10;99.90
15717;DHT22;7960;50.908;4.204;2022-08-23T03:53:42;20.10;99.90
15717;DHT22;7960;50.908;4.204;2022-08-23T03:56:11;20.00;99.90
15717;DHT22;7960;50.908;4.204;2022-08-23T03:58:47;20.00;99.90
15717;DHT22;7960;50.908;4.204;2022-08-23T04:01:14;19.90;99.90
15717;DHT22;7960;50.908;4.204;2022-08-23T04:03:41;19.90;99.90
15717;DHT22;7960;50.908;4.204;2022-08-23T04:06:09;19.80;99.90
15717;DHT22;7960;50.908;4.204;2022-08-23T04:08:36;19.90;99.90
15717;DHT22;7960;50.908;4.204;2022-08-23T04:11:04;19.80;99.90
15717;DHT22;7960;50.908;4.204;2022-08-23T04:13:32;19.90;99.90
15717;DHT22;7960;50.908;4.204;2022-08-23T04:16:01;19.90;99.90
15717;DHT22;7960;50.908;4.204;2022-08-23T04:18:29;19.90;99.90
15717;DHT22;7960;50.908;4.204;2022-08-23T04:20:57;20.00;99.90
15717;DHT22;7960;50.908;4.204;2022-08-23T04:23:25;20.00;99.90
15717;DHT22;7960;50.908;4.204;2022-08-23T04:25:53;20.00;99.90
15717;DHT22;7960;50.908;4.204;2022-08-23T04:28:20;20.00;99.90
15717;DHT22;7960;50.908;4.204;2022-08-23T04:30:48;20.00;99.90
15717;DHT22;7960;50.908;4.204;2022-08-23T04:33:17;20.00;99.90
15717;DHT22;7960;50.908;4.204;2022-08-23T04:35:44;20.00;99.90
15717;DHT22;7960;50.908;4.204;2022-08-23T04:38:11;20.00;99.90
15717;DHT22;7960;50.908;4.204;2022-08-23T04:40:40;19.90;99.90
15717;DHT22;7960;50.908;4.204;2022-08-23T04:43:25;20.00;99.90
15717;DHT22;7960;50.908;4.204;2022-08-23T04:45:51;20.00;99.90
15717;DHT22;7960;50.908;4.204;2022-08-23T04:48:20;20.00;99.90
15717;DHT22;7960;50.908;4.204;2022-08-23T04:50:48;20.10;99.90
15717;DHT22;7960;50.908;4.204;2022-08-23T04:53:17;20.10;99.90
15717;DHT22;7960;50.908;4.204;2022-08-23T04:55:44;20.10;99.90
15717;DHT22;7960;50.908;4.204;2022-08-23T04:58:10;20.10;99.90
15717;DHT22;7960;50.908;4.204;2022-08-23T05:00:37;20.00;99.90
15717;DHT22;7960;50.908;4.204;2022-08-23T05:03:04;19.90;99.90
15717;DHT22;7960;50.908;4.204;2022-08-23T05:05:33;19.80;99.90
15717;DHT22;7960;50.908;4.204;2022-08-23T05:08:00;19.40;99.90
15717;DHT22;7960;50.908;4.204;2022-08-23T05:10:27;19.40;99.90
15717;DHT22;7960;50.908;4.204;2022-08-23T05:12:54;19.40;99.90
15717;DHT22;7960;50.908;4.204;2022-08-23T05:15:21;19.40;99.90
15717;DHT22;7960;50.908;4.204;2022-08-23T05:17:48;19.60;99.90
15717;DHT22;7960;50.908;4.204;2022-08-23T05:20:15;19.60;99.90
15717;DHT22;7960;50.908;4.204;2022-08-23T05:22:43;19.80;99.90
15717;DHT22;7960;50.908;4.204;2022-08-23T05:25:10;19.90;99.90
15717;DHT22;7960;50.908;4.204;2022-08-23T05:27:37;19.90;99.90
15717;DHT22;7960;50.908;4.204;2022-08-23T05:30:05;19.80;99.90
15717;DHT22;7960;50.908;4.204;2022-08-23T05:32:33;19.70;99.90
15717;DHT22;7960;50.908;4.204;2022-08-23T05:35:00;19.60;99.90
15717;DHT22;7960;50.908;4.204;2022-08-23T05:37:29;19.40;99.90
15717;DHT22;7960;50.908;4.204;2022-08-23T05:39:57;19.20;99.90
15717;DHT22;7960;50.908;4.204;2022-08-23T05:42:24;19.10;99.90
15717;DHT22;7960;50.908;4.204;2022-08-23T05:44:51;19.10;99.90
15717;DHT22;7960;50.908;4.204;2022-08-23T05:47:18;19.30;99.90
15717;DHT22;7960;50.908;4.204;2022-08-23T05:49:45;19.60;99.90
15717;DHT22;7960;50.908;4.204;2022-08-23T05:52:13;19.80;99.90
15717;DHT22;7960;50.908;4.204;2022-08-23T05:54:40;19.70;99.90
15717;DHT22;7960;50.908;4.204;2022-08-23T05:57:08;19.80;99.90
15717;DHT22;7960;50.908;4.204;2022-08-23T05:59:36;20.00;99.90
15717;DHT22;7960;50.908;4.204;2022-08-23T06:02:03;20.20;99.90
15717;DHT22;7960;50.908;4.204;2022-08-23T06:04:30;20.20;99.90
15717;DHT22;7960;50.908;4.204;2022-08-23T06:06:57;20.30;99.90
15717;DHT22;7960;50.908;4.204;2022-08-23T06:09:25;20.20;99.90
15717;DHT22;7960;50.908;4.204;2022-08-23T06:11:52;20.30;99.90
15717;DHT22;7960;50.908;4.204;2022-08-23T06:14:20;20.40;99.90
15717;DHT22;7960;50.908;4.204;2022-08-23T06:16:49;20.40;99.90
15717;DHT22;7960;50.908;4.204;2022-08-23T06:19:16;20.30;99.90
15717;DHT22;7960;50.908;4.204;2022-08-23T06:21:44;20.40;99.90
15717;DHT22;7960;50.908;4.204;2022-08-23T06:24:11;20.20;99.90
15717;DHT22;7960;50.908;4.204;2022-08-23T06:26:42;20.30;99.90
15717;DHT22;7960;50.908;4.204;2022-08-23T06:29:11;20.30;99.90
15717;DHT22;7960;50.908;4.204;2022-08-23T06:31:41;20.40;99.90
15717;DHT22;7960;50.908;4.204;2022-08-23T06:34:15;20.50;99.90
15717;DHT22;7960;50.908;4.204;2022-08-23T06:36:43;20.40;99.90
15717;DHT22;7960;50.908;4.204;2022-08-23T06:39:11;20.40;99.90
15717;DHT22;7960;50.908;4.204;2022-08-23T06:41:39;20.30;99.90
15717;DHT22;7960;50.908;4.204;2022-08-23T06:44:06;20.30;99.90
15717;DHT22;7960;50.908;4.204;2022-08-23T06:46:36;20.50;99.90
15717;DHT22;7960;50.908;4.204;2022-08-23T06:49:06;20.50;99.90
15717;DHT22;7960;50.908;4.204;2022-08-23T06:51:35;20.60;99.90
15717;DHT22;7960;50.908;4.204;2022-08-23T06:54:06;20.70;99.90
15717;DHT22;7960;50.908;4.204;2022-08-23T06:56:34;20.90;99.90
15717;DHT22;7960;50.908;4.204;2022-08-23T06:59:02;20.80;99.90
15717;DHT22;7960;50.908;4.204;2022-08-23T07:01:35;20.90;99.90
15717;DHT22;7960;50.908;4.204;2022-08-23T07:04:05;20.90;99.90
15717;DHT22;7960;50.908;4.204;2022-08-23T07:06:33;21.00;99.90
15717;DHT22;7960;50.908;4.204;2022-08-23T07:09:00;21.10;99.90
15717;DHT22;7960;50.908;4.204;2022-08-23T07:11:29;21.20;99.90
15717;DHT22;7960;50.908;4.204;2022-08-23T07:13:57;21.00;99.90
15717;DHT22;7960;50.908;4.204;2022-08-23T07:16:30;21.00;99.90
15717;DHT22;7960;50.908;4.204;2022-08-23T07:18:57;21.00;99.90
15717;DHT22;7960;50.908;4.204;2022-08-23T07:21:26;21.10;99.90
15717;DHT22;7960;50.908;4.204;2022-08-23T07:23:52;20.90;99.90
15717;DHT22;7960;50.908;4.204;2022-08-23T07:26:20;21.00;99.90
15717;DHT22;7960;50.908;4.204;2022-08-23T07:28:59;21.10;99.90
15717;DHT22;7960;50.908;4.204;2022-08-23T07:31:28;21.30;99.90
15717;DHT22;7960;50.908;4.204;2022-08-23T07:34:02;21.50;99.90
15717;DHT22;7960;50.908;4.204;2022-08-23T07:36:33;21.60;99.90
15717;DHT22;7960;50.908;4.204;2022-08-23T07:39:01;21.60;99.90
15717;DHT22;7960;50.908;4.204;2022-08-23T07:41:30;21.70;99.90
15717;DHT22;7960;50.908;4.204;2022-08-23T07:43:57;21.80;99.90
15717;DHT22;7960;50.908;4.204;2022-08-23T07:46:26;21.60;99.90
15717;DHT22;7960;50.908;4.204;2022-08-23T07:48:58;21.70;99.90
15717;DHT22;7960;50.908;4.204;2022-08-23T07:51:28;21.90;99.90
15717;DHT22;7960;50.908;4.204;2022-08-23T07:53:56;21.90;99.90
15717;DHT22;7960;50.908;4.204;2022-08-23T07:56:23;21.90;99.90
15717;DHT22;7960;50.908;4.204;2022-08-23T07:58:50;22.00;99.90
15717;DHT22;7960;50.908;4.204;2022-08-23T08:01:20;22.10;99.90
15717;DHT22;7960;50.908;4.204;2022-08-23T08:03:50;22.30;99.90
15717;DHT22;7960;50.908;4.204;2022-08-23T08:06:20;22.20;99.90
15717;DHT22;7960;50.908;4.204;2022-08-23T08:08:48;22.30;99.90
15717;DHT22;7960;50.908;4.204;2022-08-23T08:11:25;22.30;99.90
15717;DHT22;7960;50.908;4.204;2022-08-23T08:13:53;22.50;99.90
15717;DHT22;7960;50.908;4.204;2022-08-23T08:16:23;22.70;99.90
15717;DHT22;7960;50.908;4.204;2022-08-23T08:18:59;22.80;99.90
15717;DHT22;7960;50.908;4.204;2022-08-23T08:21:38;22.90;99.90
15717;DHT22;7960;50.908;4.204;2022-08-23T08:24:06;23.00;99.90
15717;DHT22;7960;50.908;4.204;2022-08-23T08:26:43;23.10;99.90
15717;DHT22;7960;50.908;4.204;2022-08-23T08:31:42;23.40;99.90
15717;DHT22;7960;50.908;4.204;2022-08-23T08:34:11;23.40;99.90
15717;DHT22;7960;50.908;4.204;2022-08-23T08:36:40;23.50;99.90
15717;DHT22;7960;50.908;4.204;2022-08-23T08:39:11;23.70;99.90
15717;DHT22;7960;50.908;4.204;2022-08-23T08:41:47;23.70;99.90
15717;DHT22;7960;50.908;4.204;2022-08-23T08:44:24;23.90;99.90
15717;DHT22;7960;50.908;4.204;2022-08-23T08:46:54;23.70;99.90
15717;DHT22;7960;50.908;4.204;2022-08-23T08:49:30;23.60;99.90
15717;DHT22;7960;50.908;4.204;2022-08-23T08:52:05;23.60;99.90
15717;DHT22;7960;50.908;4.204;2022-08-23T08:54:35;23.60;99.90
15717;DHT22;7960;50.908;4.204;2022-08-23T08:57:06;23.50;99.90
15717;DHT22;7960;50.908;4.204;2022-08-23T08:59:43;23.60;99.90
15717;DHT22;7960;50.908;4.204;2022-08-23T09:04:43;24.10;99.90
15717;DHT22;7960;50.908;4.204;2022-08-23T09:07:13;23.60;99.90
15717;DHT22;7960;50.908;4.204;2022-08-23T09:10:04;23.70;99.90
15717;DHT22;7960;50.908;4.204;2022-08-23T09:15:20;23.60;99.90
15717;DHT22;7960;50.908;4.204;2022-08-23T09:17:52;23.80;99.90
15717;DHT22;7960;50.908;4.204;2022-08-23T09:20:21;23.70;99.90
15717;DHT22;7960;50.908;4.204;2022-08-23T09:22:50;23.90;99.90
15717;DHT22;7960;50.908;4.204;2022-08-23T09:25:19;24.20;99.90
15717;DHT22;7960;50.908;4.204;2022-08-23T09:27:47;24.40;99.90
15717;DHT22;7960;50.908;4.204;2022-08-23T09:30:16;24.70;99.90
15717;DHT22;7960;50.908;4.204;2022-08-23T09:32:46;24.90;99.90
15717;DHT22;7960;50.908;4.204;2022-08-23T09:35:19;25.00;99.90
15717;DHT22;7960;50.908;4.204;2022-08-23T09:37:53;25.10;99.90
15717;DHT22;7960;50.908;4.204;2022-08-23T09:43:11;25.40;99.90
15717;DHT22;7960;50.908;4.204;2022-08-23T09:45:40;25.40;99.90
15717;DHT22;7960;50.908;4.204;2022-08-23T09:48:12;25.30;99.90
15717;DHT22;7960;50.908;4.204;2022-08-23T09:50:42;25.60;99.90
15717;DHT22;7960;50.908;4.204;2022-08-23T09:53:14;25.70;99.90
15717;DHT22;7960;50.908;4.204;2022-08-23T09:55:46;25.70;99.90
15717;DHT22;7960;50.908;4.204;2022-08-23T09:58:19;25.90;99.90
15717;DHT22;7960;50.908;4.204;2022-08-23T10:01:06;26.20;99.90
15717;DHT22;7960;50.908;4.204;2022-08-23T10:03:33;26.20;99.90
15717;DHT22;7960;50.908;4.204;2022-08-23T10:06:01;26.10;99.90
15717;DHT22;7960;50.908;4.204;2022-08-23T10:08:30;26.10;99.90
15717;DHT22;7960;50.908;4.204;2022-08-23T10:11:04;26.30;99.90
15717;DHT22;7960;50.908;4.204;2022-08-23T10:13:36;26.30;99.90
15717;DHT22;7960;50.908;4.204;2022-08-23T10:16:08;26.30;99.90
15717;DHT22;7960;50.908;4.204;2022-08-23T10:18:49;26.30;99.90
15717;DHT22;7960;50.908;4.204;2022-08-23T10:21:22;26.40;99.90
15717;DHT22;7960;50.908;4.204;2022-08-23T10:24:01;26.50;99.90
15717;DHT22;7960;50.908;4.204;2022-08-23T10:26:35;26.20;99.90
15717;DHT22;7960;50.908;4.204;2022-08-23T10:29:11;25.90;99.90
15717;DHT22;7960;50.908;4.204;2022-08-23T10:32:05;25.80;99.90
15717;DHT22;7960;50.908;4.204;2022-08-23T10:35:02;26.10;99.90
15717;DHT22;7960;50.908;4.204;2022-08-23T10:37:48;26.20;99.90
15717;DHT22;7960;50.908;4.204;2022-08-23T10:40:24;26.20;99.90
15717;DHT22;7960;50.908;4.204;2022-08-23T10:43:06;26.10;99.90
15717;DHT22;7960;50.908;4.204;2022-08-23T10:45:37;25.90;99.90
15717;DHT22;7960;50.908;4.204;2022-08-23T10:48:18;25.90;99.90
15717;DHT22;7960;50.908;4.204;2022-08-23T10:50:50;26.20;99.90
15717;DHT22;7960;50.908;4.204;2022-08-23T10:53:20;26.40;99.90
15717;DHT22;7960;50.908;4.204;2022-08-23T10:55:54;26.60;99.90
15717;DHT22;7960;50.908;4.204;2022-08-23T10:58:31;26.80;99.90
15717;DHT22;7960;50.908;4.204;2022-08-23T11:01:17;26.80;99.90
15717;DHT22;7960;50.908;4.204;2022-08-23T11:03:54;26.50;99.90
15717;DHT22;7960;50.908;4.204;2022-08-23T11:06:49;26.60;99.90
15717;DHT22;7960;50.908;4.204;2022-08-23T11:09:47;26.40;99.90
15717;DHT22;7960;50.908;4.204;2022-08-23T11:12:23;26.50;99.90
15717;DHT22;7960;50.908;4.204;2022-08-23T11:15:16;26.60;99.90
15717;DHT22;7960;50.908;4.204;2022-08-23T11:18:01;26.60;99.90
15717;DHT22;7960;50.908;4.204;2022-08-23T11:23:43;26.70;99.90
15717;DHT22;7960;50.908;4.204;2022-08-23T11:29:36;26.70;99.90
15717;DHT22;7960;50.908;4.204;2022-08-23T11:32:25;27.10;99.90
15717;DHT22;7960;50.908;4.204;2022-08-23T11:37:53;27.40;99.90
15717;DHT22;7960;50.908;4.204;2022-08-23T11:40:56;27.60;99.90
15717;DHT22;7960;50.908;4.204;2022-08-23T11:43:29;27.60;99.90
15717;DHT22;7960;50.908;4.204;2022-08-23T11:46:28;27.30;99.90
15717;DHT22;7960;50.908;4.204;2022-08-23T11:52:02;27.20;99.90
15717;DHT22;7960;50.908;4.204;2022-08-23T11:54:44;27.50;99.90
15717;DHT22;7960;50.908;4.204;2022-08-23T11:57:28;27.70;99.90
15717;DHT22;7960;50.908;4.204;2022-08-23T12:00:18;27.60;99.90
15717;DHT22;7960;50.908;4.204;2022-08-23T12:02:57;27.70;99.90
15717;DHT22;7960;50.908;4.204;2022-08-23T12:06:02;27.70;99.90
15717;DHT22;7960;50.908;4.204;2022-08-23T12:08:49;27.40;99.90
15717;DHT22;7960;50.908;4.204;2022-08-23T12:11:18;27.30;99.90
15717;DHT22;7960;50.908;4.204;2022-08-23T12:16:45;27.60;99.90
15717;DHT22;7960;50.908;4.204;2022-08-23T12:19:30;27.70;99.90
15717;DHT22;7960;50.908;4.204;2022-08-23T12:22:05;28.00;99.90
15717;DHT22;7960;50.908;4.204;2022-08-23T12:24:42;28.00;99.90
15717;DHT22;7960;50.908;4.204;2022-08-23T12:27:20;27.80;99.90
15717;DHT22;7960;50.908;4.204;2022-08-23T12:30:03;27.80;99.90
15717;DHT22;7960;50.908;4.204;2022-08-23T12:32:37;28.20;99.90
15717;DHT22;7960;50.908;4.204;2022-08-23T12:35:24;28.60;99.90
15717;DHT22;7960;50.908;4.204;2022-08-23T12:37:59;28.90;99.90
15717;DHT22;7960;50.908;4.204;2022-08-23T12:40:36;29.10;99.90
15717;DHT22;7960;50.908;4.204;2022-08-23T12:43:06;29.50;99.90
15717;DHT22;7960;50.908;4.204;2022-08-23T12:45:39;29.70;99.90
15717;DHT22;7960;50.908;4.204;2022-08-23T12:48:10;29.60;99.90
15717;DHT22;7960;50.908;4.204;2022-08-23T12:50:39;29.30;99.90
15717;DHT22;7960;50.908;4.204;2022-08-23T12:53:09;29.50;99.90
15717;DHT22;7960;50.908;4.204;2022-08-23T12:55:43;29.40;99.90
15717;DHT22;7960;50.908;4.204;2022-08-23T12:58:11;29.50;99.90
15717;DHT22;7960;50.908;4.204;2022-08-23T13:00:42;29.70;99.90
15717;DHT22;7960;50.908;4.204;2022-08-23T13:03:19;29.50;99.90
15717;DHT22;7960;50.908;4.204;2022-08-23T13:05:52;29.60;99.90
15717;DHT22;7960;50.908;4.204;2022-08-23T13:08:24;29.70;99.90
15717;DHT22;7960;50.908;4.204;2022-08-23T13:10:53;29.30;99.90
15717;DHT22;7960;50.908;4.204;2022-08-23T13:13:24;29.10;99.90
15717;DHT22;7960;50.908;4.204;2022-08-23T13:15:54;29.30;99.90
15717;DHT22;7960;50.908;4.204;2022-08-23T13:18:28;29.70;99.90
15717;DHT22;7960;50.908;4.204;2022-08-23T13:21:18;30.00;99.90
15717;DHT22;7960;50.908;4.204;2022-08-23T13:23:50;30.30;99.90
15717;DHT22;7960;50.908;4.204;2022-08-23T13:26:26;30.20;99.90
15717;DHT22;7960;50.908;4.204;2022-08-23T13:29:01;30.20;99.50
15717;DHT22;7960;50.908;4.204;2022-08-23T13:31:52;29.60;99.90
15717;DHT22;7960;50.908;4.204;2022-08-23T13:34:39;30.00;99.90
15717;DHT22;7960;50.908;4.204;2022-08-23T13:37:16;29.80;99.90
15717;DHT22;7960;50.908;4.204;2022-08-23T13:39:47;29.70;99.90
15717;DHT22;7960;50.908;4.204;2022-08-23T13:42:29;29.30;99.90
15717;DHT22;7960;50.908;4.204;2022-08-23T13:45:06;28.60;99.90
15717;DHT22;7960;50.908;4.204;2022-08-23T13:47:33;28.30;99.90
15717;DHT22;7960;50.908;4.204;2022-08-23T13:50:01;28.20;99.90
15717;DHT22;7960;50.908;4.204;2022-08-23T13:52:30;28.40;99.90
15717;DHT22;7960;50.908;4.204;2022-08-23T13:54:57;28.40;99.90
15717;DHT22;7960;50.908;4.204;2022-08-23T13:57:26;29.00;99.90
15717;DHT22;7960;50.908;4.204;2022-08-23T13:59:54;29.80;99.90
15717;DHT22;7960;50.908;4.204;2022-08-23T14:02:23;30.80;99.90
15717;DHT22;7960;50.908;4.204;2022-08-23T14:04:51;31.60;98.90
15717;DHT22;7960;50.908;4.204;2022-08-23T14:07:18;31.90;97.90
15717;DHT22;7960;50.908;4.204;2022-08-23T14:09:45;31.80;97.30
15717;DHT22;7960;50.908;4.204;2022-08-23T14:12:15;31.20;97.90
15717;DHT22;7960;50.908;4.204;2022-08-23T14:14:45;31.70;97.60
15717;DHT22;7960;50.908;4.204;2022-08-23T14:17:12;31.60;96.80
15717;DHT22;7960;50.908;4.204;2022-08-23T14:19:41;31.50;96.00
15717;DHT22;7960;50.908;4.204;2022-08-23T14:22:11;31.20;96.10
15717;DHT22;7960;50.908;4.204;2022-08-23T14:24:39;31.60;95.70
15717;DHT22;7960;50.908;4.204;2022-08-23T14:27:08;32.40;95.40
15717;DHT22;7960;50.908;4.204;2022-08-23T14:29:36;33.10;94.40
15717;DHT22;7960;50.908;4.204;2022-08-23T14:32:06;33.20;93.60
15717;DHT22;7960;50.908;4.204;2022-08-23T14:34:33;33.40;93.10
15717;DHT22;7960;50.908;4.204;2022-08-23T14:37:00;33.20;92.80
15717;DHT22;7960;50.908;4.204;2022-08-23T14:39:27;33.20;92.40
15717;DHT22;7960;50.908;4.204;2022-08-23T14:41:54;33.20;92.80
15717;DHT22;7960;50.908;4.204;2022-08-23T14:44:21;33.30;92.50
15717;DHT22;7960;50.908;4.204;2022-08-23T14:46:50;33.50;92.30
15717;DHT22;7960;50.908;4.204;2022-08-23T14:49:18;33.90;91.70
15717;DHT22;7960;50.908;4.204;2022-08-23T14:51:48;34.00;91.00
15717;DHT22;7960;50.908;4.204;2022-08-23T14:54:18;34.20;90.60
15717;DHT22;7960;50.908;4.204;2022-08-23T14:56:45;34.50;90.20
15717;DHT22;7960;50.908;4.204;2022-08-23T14:59:12;34.50;90.10
15717;DHT22;7960;50.908;4.204;2022-08-23T15:01:40;34.30;89.40
15717;DHT22;7960;50.908;4.204;2022-08-23T15:04:10;33.80;90.50
15717;DHT22;7960;50.908;4.204;2022-08-23T15:06:43;33.20;90.50
15717;DHT22;7960;50.908;4.204;2022-08-23T15:09:10;32.80;91.30
15717;DHT22;7960;50.908;4.204;2022-08-23T15:11:37;33.10;91.40
15717;DHT22;7960;50.908;4.204;2022-08-23T15:14:04;33.30;91.10
15717;DHT22;7960;50.908;4.204;2022-08-23T15:16:31;33.20;90.80
15717;DHT22;7960;50.908;4.204;2022-08-23T15:18:58;33.30;90.20
15717;DHT22;7960;50.908;4.204;2022-08-23T15:21:26;33.60;90.00
15717;DHT22;7960;50.908;4.204;2022-08-23T15:23:54;33.50;89.40
15717;DHT22;7960;50.908;4.204;2022-08-23T15:26:23;33.40;89.90
15717;DHT22;7960;50.908;4.204;2022-08-23T15:28:51;33.50;89.80
15717;DHT22;7960;50.908;4.204;2022-08-23T15:31:19;32.90;89.20
15717;DHT22;7960;50.908;4.204;2022-08-23T15:33:46;32.10;90.80
15717;DHT22;7960;50.908;4.204;2022-08-23T15:36:14;31.90;91.20
15717;DHT22;7960;50.908;4.204;2022-08-23T15:38:44;32.00;91.50
15717;DHT22;7960;50.908;4.204;2022-08-23T15:41:14;31.80;91.90
15717;DHT22;7960;50.908;4.204;2022-08-23T15:43:42;31.70;92.50
15717;DHT22;7960;50.908;4.204;2022-08-23T15:46:11;31.80;92.40
15717;DHT22;7960;50.908;4.204;2022-08-23T15:48:42;31.80;92.30
15717;DHT22;7960;50.908;4.204;2022-08-23T15:51:10;31.50;92.30
15717;DHT22;7960;50.908;4.204;2022-08-23T15:53:37;31.60;92.40
15717;DHT22;7960;50.908;4.204;2022-08-23T15:56:07;31.50;92.90
15717;DHT22;7960;50.908;4.204;2022-08-23T15:58:36;31.10;93.40
15717;DHT22;7960;50.908;4.204;2022-08-23T16:01:05;30.90;93.80
15717;DHT22;7960;50.908;4.204;2022-08-23T16:03:32;30.90;94.20
15717;DHT22;7960;50.908;4.204;2022-08-23T16:06:01;31.10;93.90
15717;DHT22;7960;50.908;4.204;2022-08-23T16:08:29;31.10;93.70
15717;DHT22;7960;50.908;4.204;2022-08-23T16:10:59;31.30;93.80
15717;DHT22;7960;50.908;4.204;2022-08-23T16:13:26;31.30;93.20
15717;DHT22;7960;50.908;4.204;2022-08-23T16:15:54;30.80;93.60
15717;DHT22;7960;50.908;4.204;2022-08-23T16:18:22;30.90;93.50
15717;DHT22;7960;50.908;4.204;2022-08-23T16:20:49;31.00;93.60
15717;DHT22;7960;50.908;4.204;2022-08-23T16:23:16;31.30;93.40
15717;DHT22;7960;50.908;4.204;2022-08-23T16:25:43;31.30;93.30
15717;DHT22;7960;50.908;4.204;2022-08-23T16:28:10;31.10;93.30
15717;DHT22;7960;50.908;4.204;2022-08-23T16:30:37;30.70;93.20
15717;DHT22;7960;50.908;4.204;2022-08-23T16:33:05;30.50;93.60
15717;DHT22;7960;50.908;4.204;2022-08-23T16:35:32;30.30;94.00